createdAt,value
2022-09-07T00:00:39.676Z,79.83
2022-09-07T00:01:39.785Z,80.33
2022-09-07T00:02:39.644Z,79.83
2022-09-07T00:03:39.826Z,79.93
2022-09-07T00:04:39.781Z,79.83
2022-09-07T00:05:39.755Z,79.83
2022-09-07T00:06:39.575Z,79.93
2022-09-07T00:07:39.647Z,80.33
2022-09-07T00:08:39.662Z,80.27
2022-09-07T00:09:39.695Z,80.27
2022-09-07T00:10:39.674Z,80.13
2022-09-07T00:11:39.438Z,80.47
2022-09-07T00:12:39.615Z,80.47
2022-09-07T00:13:39.555Z,80.78
2022-09-07T00:14:39.595Z,80.98
2022-09-07T00:15:39.475Z,81.08
2022-09-07T00:16:39.613Z,81.18
2022-09-07T00:17:39.465Z,81.48
2022-09-07T00:18:45.084Z,81.28
2022-09-07T00:19:39.437Z,81.38
2022-09-07T00:20:39.586Z,81.18
2022-09-07T00:21:39.596Z,80.98
2022-09-07T00:22:39.524Z,81.38
2022-09-07T00:23:39.406Z,81.28
2022-09-07T00:24:39.548Z,81.38
2022-09-07T00:25:39.412Z,81.38
2022-09-07T00:26:39.475Z,81.38
2022-09-07T00:27:39.469Z,81.59
2022-09-07T00:28:39.273Z,81.48
2022-09-07T00:29:39.485Z,81.79
2022-09-07T00:30:39.246Z,81.38
2022-09-07T00:31:40.029Z,81.08
2022-09-07T00:32:39.336Z,81.28
2022-09-07T00:33:39.486Z,81.68
2022-09-07T00:34:39.295Z,81.48
2022-09-07T00:35:39.526Z,81.48
2022-09-07T00:36:39.455Z,81.38
2022-09-07T00:37:39.415Z,81.38
2022-09-07T00:38:39.304Z,81.68
2022-09-07T00:39:39.537Z,81.62
2022-09-07T00:40:39.235Z,81.82
2022-09-07T00:41:39.396Z,83.04
2022-09-07T00:42:39.338Z,81.93
2022-09-07T00:43:39.244Z,81.82
2022-09-07T00:44:39.276Z,82.43
2022-09-07T00:45:39.066Z,82.13
2022-09-07T00:46:39.308Z,82.33
2022-09-07T00:47:39.195Z,82.33
2022-09-07T00:48:39.416Z,82.43
2022-09-07T00:49:39.176Z,82.43
2022-09-07T00:50:39.235Z,82.23
2022-09-07T00:51:39.221Z,82.13
2022-09-07T00:52:39.455Z,82.03
2022-09-07T00:53:39.175Z,82.43
2022-09-07T00:54:39.246Z,82.53
2022-09-07T00:55:39.125Z,82.43
2022-09-07T00:56:39.763Z,82.64
2022-09-07T00:57:39.101Z,83.95
2022-09-07T00:58:39.485Z,82.43
2022-09-07T00:59:39.157Z,82.67
2022-09-07T01:00:38.956Z,83.68
2022-09-07T01:01:39.355Z,83.28
2022-09-07T01:02:39.292Z,83.78
2022-09-07T01:03:39.216Z,83.28
2022-09-07T01:04:39.037Z,83.58
2022-09-07T01:05:39.033Z,83.58
2022-09-07T01:06:38.955Z,83.68
2022-09-07T01:07:39.106Z,83.28
2022-09-07T01:08:38.944Z,82.98
2022-09-07T01:09:39.246Z,82.98
2022-09-07T01:10:38.935Z,82.87
2022-09-07T01:11:39.004Z,83.28
2022-09-07T01:12:38.926Z,83.38
2022-09-07T01:13:38.905Z,83.95
2022-09-07T01:14:39.018Z,82.93
2022-09-07T01:15:38.842Z,82.98
2022-09-07T01:16:39.065Z,83.18
2022-09-07T01:17:38.776Z,83.38
2022-09-07T01:18:39.155Z,83.58
2022-09-07T01:19:38.764Z,83.58
2022-09-07T01:20:38.966Z,83.38
2022-09-07T01:21:39.005Z,83.48
2022-09-07T01:22:38.895Z,83.58
2022-09-07T01:23:38.805Z,83.18
2022-09-07T01:24:38.985Z,83.18
2022-09-07T01:25:38.885Z,83.18
2022-09-07T01:26:38.985Z,83.28
2022-09-07T01:27:38.835Z,83.58
2022-09-07T01:28:38.754Z,83.28
2022-09-07T01:29:38.785Z,83.48
2022-09-07T01:30:38.724Z,83.68
2022-09-07T01:31:38.815Z,83.78
2022-09-07T01:32:38.625Z,83.68
2022-09-07T01:33:38.774Z,83.68
2022-09-07T01:34:38.835Z,83.58
2022-09-07T01:35:38.796Z,83.68
2022-09-07T01:36:38.724Z,83.78
2022-09-07T01:37:38.805Z,83.78
2022-09-07T01:38:38.795Z,83.48
2022-09-07T01:39:38.737Z,83.98
2022-09-07T01:40:38.735Z,83.48
2022-09-07T01:41:38.795Z,83.48
2022-09-07T01:42:38.597Z,83.58
2022-09-07T01:43:38.635Z,84.39
2022-09-07T01:44:38.617Z,83.88
2022-09-07T01:45:38.415Z,84.39
2022-09-07T01:46:38.743Z,84.09
2022-09-07T01:47:38.475Z,83.88
2022-09-07T01:48:38.736Z,83.98
2022-09-07T01:49:38.475Z,83.78
2022-09-07T01:50:38.759Z,84.09
2022-09-07T01:51:38.514Z,83.68
2022-09-07T01:52:38.635Z,83.68
2022-09-07T01:53:38.466Z,83.68
2022-09-07T01:54:38.635Z,83.88
2022-09-07T01:55:38.594Z,84.19
2022-09-07T01:56:38.536Z,83.98
2022-09-07T01:57:38.615Z,84.09
2022-09-07T01:58:38.606Z,83.98
2022-09-07T01:59:38.458Z,84.23
2022-09-07T02:00:38.299Z,84.29
2022-09-07T02:01:38.549Z,84.09
2022-09-07T02:02:38.368Z,84.33
2022-09-07T02:03:38.495Z,84.39
2022-09-07T02:04:38.314Z,84.19
2022-09-07T02:05:38.445Z,84.29
2022-09-07T02:06:38.475Z,84.09
2022-09-07T02:07:38.447Z,84.29
2022-09-07T02:08:38.355Z,83.48
2022-09-07T02:09:38.472Z,83.78
2022-09-07T02:10:38.395Z,83.48
2022-09-07T02:11:38.467Z,83.68
2022-09-07T02:12:38.346Z,83.68
2022-09-07T02:13:38.345Z,83.92
2022-09-07T02:14:38.296Z,84.63
2022-09-07T02:15:38.183Z,83.82
2022-09-07T02:16:38.326Z,84.43
2022-09-07T02:17:38.198Z,84.33
2022-09-07T02:18:38.364Z,84.53
2022-09-07T02:19:38.177Z,84.63
2022-09-07T02:20:38.516Z,84.33
2022-09-07T02:21:38.256Z,84.63
2022-09-07T02:22:38.316Z,84.03
2022-09-07T02:23:38.197Z,84.23
2022-09-07T02:24:38.267Z,83.92
2022-09-07T02:25:38.115Z,84.23
2022-09-07T02:26:38.435Z,84.47
2022-09-07T02:27:38.275Z,84.87
2022-09-07T02:28:38.266Z,84.87
2022-09-07T02:29:38.145Z,84.87
2022-09-07T02:30:38.138Z,85.08
2022-09-07T02:31:38.156Z,84.87
2022-09-07T02:32:38.027Z,84.97
2022-09-07T02:33:38.155Z,85.17
2022-09-07T02:34:38.155Z,85.38
2022-09-07T02:35:38.135Z,85.28
2022-09-07T02:36:38.085Z,85.48
2022-09-07T02:37:38.195Z,85.72
2022-09-07T02:38:37.985Z,85.93
2022-09-07T02:39:38.159Z,85.93
2022-09-07T02:40:38.036Z,86.13
2022-09-07T02:41:38.084Z,86.43
2022-09-07T02:42:37.997Z,85.58
2022-09-07T02:43:38.176Z,85.99
2022-09-07T02:44:38.064Z,85.99
2022-09-07T02:45:38.032Z,86.39
2022-09-07T02:46:38.091Z,85.68
2022-09-07T02:47:37.824Z,85.88
2022-09-07T02:48:37.955Z,85.68
2022-09-07T02:49:37.915Z,85.48
2022-09-07T02:50:38.175Z,85.58
2022-09-07T02:51:37.865Z,85.99
2022-09-07T02:52:38.034Z,85.88
2022-09-07T02:53:37.965Z,86.29
2022-09-07T02:54:38.006Z,85.58
2022-09-07T02:55:37.846Z,85.99
2022-09-07T02:56:37.894Z,86.22
2022-09-07T02:57:37.855Z,86.19
2022-09-07T02:58:37.926Z,86.19
2022-09-07T02:59:37.926Z,85.78
2022-09-07T03:00:38.005Z,85.78
2022-09-07T03:01:37.831Z,85.48
2022-09-07T03:02:37.910Z,86.08
2022-09-07T03:03:37.804Z,86.59
2022-09-07T03:04:37.695Z,86.08
2022-09-07T03:05:37.976Z,85.88
2022-09-07T03:06:37.781Z,86.08
2022-09-07T03:07:42.181Z,85.78
2022-09-07T03:08:37.776Z,85.68
2022-09-07T03:09:37.795Z,86.08
2022-09-07T03:10:37.674Z,85.58
2022-09-07T03:11:37.888Z,85.48
2022-09-07T03:12:37.655Z,85.28
2022-09-07T03:13:37.825Z,85.28
2022-09-07T03:14:37.753Z,84.87
2022-09-07T03:15:37.890Z,84.97
2022-09-07T03:16:37.815Z,84.61
2022-09-07T03:17:37.575Z,85.31
2022-09-07T03:18:37.694Z,85.22
2022-09-07T03:19:37.536Z,85.22
2022-09-07T03:20:37.795Z,85.42
2022-09-07T03:21:37.504Z,85.11
2022-09-07T03:22:37.747Z,85.52
2022-09-07T03:23:37.594Z,86.53
2022-09-07T03:24:37.754Z,86.07
2022-09-07T03:25:37.474Z,85.96
2022-09-07T03:26:37.656Z,86.37
2022-09-07T03:27:37.708Z,86.37
2022-09-07T03:28:37.656Z,86.37
2022-09-07T03:29:41.427Z,86.07
2022-09-07T03:30:37.582Z,86.27
2022-09-07T03:31:37.666Z,85.86
2022-09-07T03:32:37.375Z,85.46
2022-09-07T03:33:37.705Z,85.25
2022-09-07T03:34:37.718Z,86.27
2022-09-07T03:35:37.717Z,86.37
2022-09-07T03:36:37.375Z,86.57
2022-09-07T03:37:37.554Z,86.37
2022-09-07T03:38:37.389Z,86.67
2022-09-07T03:39:37.530Z,86.47
2022-09-07T03:40:37.505Z,86.91
2022-09-07T03:41:37.524Z,86.91
2022-09-07T03:42:37.445Z,87.12
2022-09-07T03:43:37.512Z,87.73
2022-09-07T03:44:37.365Z,87.52
2022-09-07T03:45:37.638Z,86.91
2022-09-07T03:46:37.358Z,87.38
2022-09-07T03:47:37.295Z,86.77
2022-09-07T03:48:37.386Z,86.37
2022-09-07T03:49:37.216Z,86.57
2022-09-07T03:50:37.357Z,86.57
2022-09-07T03:51:37.425Z,87.38
2022-09-07T03:52:37.355Z,86.57
2022-09-07T03:53:37.217Z,86.47
2022-09-07T03:54:39.630Z,86.47
2022-09-07T03:55:37.175Z,86.37
2022-09-07T03:56:37.385Z,86.07
2022-09-07T03:57:37.165Z,85.66
2022-09-07T03:58:37.336Z,86.07
2022-09-07T03:59:37.315Z,85.96
2022-09-07T04:00:37.335Z,86.67
2022-09-07T04:01:37.322Z,87.08
2022-09-07T04:02:37.111Z,86.16
2022-09-07T04:03:37.313Z,86.27
2022-09-07T04:04:37.015Z,85.96
2022-09-07T04:05:37.254Z,85.96
2022-09-07T04:06:36.996Z,86.47
2022-09-07T04:07:37.266Z,86.16
2022-09-07T04:08:37.127Z,85.86
2022-09-07T04:09:37.146Z,85.96
2022-09-07T04:10:37.085Z,85.96
2022-09-07T04:11:37.275Z,86.31
2022-09-07T04:12:37.159Z,86.51
2022-09-07T04:13:37.225Z,86.51
2022-09-07T04:14:37.036Z,86.51
2022-09-07T04:15:37.148Z,86.61
2022-09-07T04:16:37.057Z,86.82
2022-09-07T04:17:37.237Z,86.91
2022-09-07T04:18:37.159Z,87.22
2022-09-07T04:19:36.955Z,87.22
2022-09-07T04:20:37.036Z,87.02
2022-09-07T04:21:36.954Z,87.12
2022-09-07T04:22:37.034Z,87.02
2022-09-07T04:23:37.034Z,87.02
2022-09-07T04:24:37.135Z,86.71
2022-09-07T04:25:37.045Z,86.71
2022-09-07T04:26:36.996Z,86.71
2022-09-07T04:27:36.877Z,86.41
2022-09-07T04:28:37.086Z,86.91
2022-09-07T04:29:36.982Z,86.71
2022-09-07T04:30:37.106Z,86.82
2022-09-07T04:31:36.905Z,86.91
2022-09-07T04:32:36.946Z,87.12
2022-09-07T04:33:36.886Z,86.61
2022-09-07T04:34:36.874Z,87.22
2022-09-07T04:35:36.896Z,86.71
2022-09-07T04:36:36.745Z,86.71
2022-09-07T04:37:36.895Z,86.41
2022-09-07T04:38:36.805Z,86.61
2022-09-07T04:39:36.991Z,86.27
2022-09-07T04:40:36.725Z,86.27
2022-09-07T04:41:36.976Z,87.08
2022-09-07T04:42:36.725Z,86.67
2022-09-07T04:43:36.896Z,86.47
2022-09-07T04:44:36.764Z,86.57
2022-09-07T04:45:36.861Z,85.96
2022-09-07T04:46:36.862Z,85.96
2022-09-07T04:47:36.854Z,86.27
2022-09-07T04:48:36.805Z,85.62
2022-09-07T04:49:36.565Z,85.42
2022-09-07T04:50:37.073Z,85.82
2022-09-07T04:51:36.596Z,85.52
2022-09-07T04:52:36.806Z,84.20
2022-09-07T04:53:37.115Z,83.64
2022-09-07T04:54:36.825Z,83.33
2022-09-07T04:55:36.755Z,83.44
2022-09-07T04:56:36.644Z,83.27
2022-09-07T04:57:36.595Z,84.85
2022-09-07T04:58:36.704Z,85.60
2022-09-07T04:59:36.568Z,86.10
2022-09-07T05:00:36.816Z,85.86
2022-09-07T05:01:36.695Z,86.07
2022-09-07T05:02:36.814Z,85.66
2022-09-07T05:03:36.687Z,85.66
2022-09-07T05:04:36.655Z,85.96
2022-09-07T05:05:36.546Z,85.86
2022-09-07T05:06:43.832Z,86.07
2022-09-07T05:07:36.731Z,85.72
2022-09-07T05:08:36.600Z,84.25
2022-09-07T05:09:36.649Z,83.94
2022-09-07T05:10:36.509Z,84.65
2022-09-07T05:11:36.529Z,84.34
2022-09-07T05:12:36.428Z,84.55
2022-09-07T05:13:36.579Z,84.85
2022-09-07T05:14:36.370Z,84.95
2022-09-07T05:15:36.699Z,85.36
2022-09-07T05:16:36.397Z,86.67
2022-09-07T05:17:36.538Z,86.27
2022-09-07T05:18:36.418Z,86.47
2022-09-07T05:19:36.559Z,86.57
2022-09-07T05:20:36.539Z,86.77
2022-09-07T05:21:36.579Z,86.27
2022-09-07T05:22:36.463Z,85.96
2022-09-07T05:23:36.229Z,85.76
2022-09-07T05:24:36.652Z,85.56
2022-09-07T05:25:36.182Z,85.31
2022-09-07T05:26:36.490Z,85.02
2022-09-07T05:27:36.239Z,85.22
2022-09-07T05:28:36.369Z,85.62
2022-09-07T05:31:36.901Z,85.93
2022-09-07T05:32:36.450Z,85.93
2022-09-07T05:34:36.910Z,85.93
2022-09-07T05:35:36.363Z,86.13
2022-09-07T05:36:36.071Z,86.33
2022-09-07T05:37:36.338Z,86.39
2022-09-07T05:38:36.110Z,86.29
2022-09-07T05:39:36.384Z,85.88
2022-09-07T05:40:40.351Z,85.99
2022-09-07T05:41:36.331Z,85.24
2022-09-07T05:42:36.249Z,85.03
2022-09-07T05:43:36.237Z,84.63
2022-09-07T05:45:36.256Z,85.34
2022-09-07T05:46:36.058Z,83.98
2022-09-07T05:47:36.480Z,83.18
2022-09-07T05:48:36.058Z,83.18
2022-09-07T05:49:36.169Z,83.58
2022-09-07T05:50:36.109Z,83.68
2022-09-07T05:51:36.310Z,83.54
2022-09-07T05:52:36.128Z,83.24
2022-09-07T05:53:35.999Z,83.04
2022-09-07T05:54:36.088Z,82.93
2022-09-07T05:55:36.129Z,83.00
2022-09-07T05:56:36.212Z,82.59
2022-09-07T05:57:35.981Z,82.29
2022-09-07T05:58:36.331Z,81.89
2022-09-07T05:59:36.070Z,82.05
2022-09-07T06:00:36.170Z,82.25
2022-09-07T06:01:35.940Z,82.15
2022-09-07T06:02:39.681Z,81.30
2022-09-07T06:03:36.141Z,80.20
2022-09-07T06:04:36.020Z,79.25
2022-09-07T06:05:35.959Z,79.46
2022-09-07T06:06:35.780Z,79.86
2022-09-07T06:07:35.889Z,79.82
2022-09-07T06:08:35.779Z,78.81
2022-09-07T06:09:36.293Z,78.38
2022-09-07T06:11:36.039Z,77.63
2022-09-07T06:12:35.749Z,77.13
2022-09-07T06:13:36.099Z,76.93
2022-09-07T06:14:35.961Z,77.43
2022-09-07T06:15:35.889Z,77.83
2022-09-07T06:16:35.850Z,76.29
2022-09-07T06:17:35.959Z,75.89
2022-09-07T06:18:35.761Z,76.49
2022-09-07T06:19:35.899Z,75.65
2022-09-07T06:20:35.789Z,75.18
2022-09-07T06:21:35.779Z,75.89
2022-09-07T06:22:35.779Z,76.39
2022-09-07T06:23:35.598Z,75.99
2022-09-07T06:24:35.769Z,76.19
2022-09-07T06:25:35.679Z,75.99
2022-09-07T06:26:35.849Z,76.49
2022-09-07T06:27:35.619Z,76.79
2022-09-07T06:28:35.752Z,76.29
2022-09-07T06:29:35.719Z,76.45
2022-09-07T06:30:35.739Z,75.92
2022-09-07T06:31:35.799Z,74.57
2022-09-07T06:32:43.189Z,74.27
2022-09-07T06:33:35.712Z,73.47
2022-09-07T06:34:35.721Z,73.97
2022-09-07T06:35:35.549Z,73.33
2022-09-07T06:36:35.749Z,73.64
2022-09-07T06:37:35.608Z,73.33
2022-09-07T06:38:35.461Z,73.44
2022-09-07T06:39:35.578Z,72.80
2022-09-07T06:40:35.489Z,72.16
2022-09-07T06:42:36.099Z,70.32
2022-09-07T06:43:35.740Z,70.56
2022-09-07T06:44:35.420Z,69.32
2022-09-07T06:45:35.604Z,68.52
2022-09-07T06:47:36.419Z,69.02
2022-09-07T06:48:36.466Z,67.63
2022-09-07T06:49:35.690Z,67.59
2022-09-07T06:50:35.419Z,67.09
2022-09-07T06:51:35.479Z,67.16
2022-09-07T06:53:37.560Z,67.06
2022-09-07T06:55:35.495Z,66.76
2022-09-07T06:56:35.471Z,68.39
2022-09-07T06:57:35.461Z,67.46
2022-09-07T06:58:38.020Z,67.23
2022-09-07T06:59:35.370Z,66.76
2022-09-07T07:00:35.469Z,65.63
2022-09-07T07:01:35.359Z,66.79
2022-09-07T07:02:35.558Z,67.79
2022-09-07T07:03:35.337Z,68.09
2022-09-07T07:04:40.467Z,67.46
2022-09-07T07:05:35.502Z,66.89
2022-09-07T07:06:35.323Z,64.77
2022-09-07T07:07:35.351Z,62.94
2022-09-07T07:08:35.188Z,63.34
2022-09-07T07:09:35.291Z,63.97
2022-09-07T07:10:35.300Z,64.17
2022-09-07T07:11:35.220Z,64.04
2022-09-07T07:13:12.429Z,63.31
2022-09-07T07:14:12.680Z,62.38
2022-09-07T07:15:12.549Z,62.48
2022-09-07T07:16:12.777Z,62.29
2022-09-07T07:17:12.572Z,62.42
2022-09-07T07:18:20.885Z,60.80
2022-09-07T07:19:12.523Z,59.05
2022-09-07T07:20:12.589Z,58.61
2022-09-07T07:21:12.561Z,60.21
2022-09-07T07:22:42.658Z,59.51
2022-09-07T07:23:12.649Z,60.03
2022-09-07T07:24:12.599Z,61.23
2022-09-07T07:25:12.559Z,60.43
2022-09-07T07:26:12.382Z,61.99
2022-09-07T07:27:12.578Z,62.38
2022-09-07T07:29:15.895Z,62.45
2022-09-07T07:30:12.480Z,62.12
2022-09-07T07:31:13.408Z,61.93
2022-09-07T07:32:12.433Z,61.66
2022-09-07T07:33:12.548Z,61.85
2022-09-07T07:34:12.555Z,60.60
2022-09-07T07:35:12.499Z,60.30
2022-09-07T07:36:12.389Z,60.38
2022-09-07T07:37:12.220Z,58.10
2022-09-07T07:42:12.990Z,55.74
2022-09-07T07:43:12.321Z,54.55
2022-09-07T07:44:12.379Z,54.82
2022-09-07T07:46:13.172Z,58.09
2022-09-07T07:47:12.249Z,61.88
2022-09-07T07:48:12.291Z,61.25
2022-09-07T07:49:12.270Z,62.05
2022-09-07T07:51:13.141Z,56.11
2022-09-07T07:54:12.743Z,52.76
2022-09-07T07:56:13.049Z,51.59
2022-09-07T07:57:12.223Z,49.37
2022-09-07T07:58:12.099Z,50.63
2022-09-07T07:59:15.592Z,50.88
2022-09-07T08:00:12.101Z,49.57
2022-09-07T08:01:12.286Z,48.93
2022-09-07T08:02:12.176Z,47.92
2022-09-07T08:03:12.219Z,46.67
2022-09-07T08:04:12.160Z,45.86
2022-09-07T08:05:12.280Z,44.26
2022-09-07T08:06:12.129Z,44.44
2022-09-07T08:07:11.991Z,43.12
2022-09-07T08:08:12.099Z,42.61
2022-09-07T08:09:11.901Z,42.33
2022-09-07T08:10:12.111Z,45.81
2022-09-07T08:11:11.939Z,46.15
2022-09-07T08:12:12.049Z,44.44
2022-09-07T08:13:11.879Z,42.19
2022-09-07T08:14:12.059Z,42.57
2022-09-07T08:15:12.100Z,40.86
2022-09-07T08:16:12.186Z,41.37
2022-09-07T08:17:12.010Z,42.02
2022-09-07T08:18:12.019Z,42.15
2022-09-07T08:19:11.951Z,41.31
2022-09-07T08:20:12.099Z,40.56
2022-09-07T08:21:12.100Z,42.66
2022-09-07T08:22:12.079Z,40.80
2022-09-07T08:23:12.128Z,41.39
2022-09-07T08:24:11.882Z,43.90
2022-09-07T08:25:11.899Z,46.03
2022-09-07T08:26:11.722Z,46.18
2022-09-07T08:27:12.089Z,44.85
2022-09-07T08:28:11.722Z,43.71
2022-09-07T08:29:11.864Z,43.80
2022-09-07T08:30:11.899Z,41.92
2022-09-07T08:31:12.094Z,40.39
2022-09-07T08:32:11.939Z,41.94
2022-09-07T08:33:11.919Z,40.82
2022-09-07T08:34:11.811Z,41.61
2022-09-07T08:35:11.979Z,41.74
2022-09-07T08:36:11.812Z,40.62
2022-09-07T08:37:11.839Z,39.84
2022-09-07T08:38:11.853Z,38.45
2022-09-07T08:39:11.619Z,37.65
2022-09-07T08:40:11.928Z,38.71
2022-09-07T08:41:11.589Z,37.34
2022-09-07T08:42:11.879Z,37.71
2022-09-07T08:43:11.579Z,38.63
2022-09-07T08:44:11.858Z,39.66
2022-09-07T08:45:11.679Z,39.22
2022-09-07T08:46:11.696Z,37.85
2022-09-07T08:47:11.919Z,38.84
2022-09-07T08:48:11.868Z,39.47
2022-09-07T08:49:11.659Z,41.09
2022-09-07T08:50:11.673Z,40.86
2022-09-07T08:51:11.579Z,39.61
2022-09-07T08:52:11.849Z,38.53
2022-09-07T08:53:11.920Z,40.03
2022-09-07T08:54:11.448Z,40.41
2022-09-07T08:55:11.578Z,38.92
2022-09-07T08:56:11.398Z,38.77
2022-09-07T08:57:27.003Z,37.83
2022-09-07T08:58:22.192Z,38.92
2022-09-07T08:59:12.120Z,40.37
2022-09-07T09:00:11.488Z,40.66
2022-09-07T09:02:28.367Z,36.80
2022-09-07T09:04:15.995Z,37.73
2022-09-07T09:05:19.361Z,38.82
2022-09-07T09:06:12.030Z,38.96
2022-09-07T09:07:11.681Z,37.46
2022-09-07T09:08:11.629Z,35.55
2022-09-07T09:09:11.519Z,35.29
2022-09-07T09:10:11.433Z,34.12
2022-09-07T09:11:11.249Z,33.85
2022-09-07T09:12:11.389Z,37.37
2022-09-07T09:13:11.361Z,37.30
2022-09-07T09:14:11.409Z,41.76
2022-09-07T09:15:11.319Z,43.93
2022-09-07T09:16:11.522Z,44.01
2022-09-07T09:17:11.369Z,44.56
2022-09-07T09:18:14.413Z,45.45
2022-09-07T09:19:11.450Z,43.69
2022-09-07T09:20:11.500Z,42.52
2022-09-07T09:21:11.309Z,40.82
2022-09-07T09:22:11.501Z,40.43
2022-09-07T09:23:11.321Z,42.51
2022-09-07T09:24:11.358Z,43.19
2022-09-07T09:25:11.310Z,40.58
2022-09-07T09:26:11.130Z,39.82
2022-09-07T09:27:11.299Z,38.10
2022-09-07T09:28:11.220Z,36.78
2022-09-07T09:29:11.359Z,36.51
2022-09-07T09:30:11.189Z,37.37
2022-09-07T09:31:11.510Z,37.23
2022-09-07T09:32:11.140Z,37.38
2022-09-07T09:33:11.399Z,38.35
2022-09-07T09:34:11.161Z,38.61
2022-09-07T09:35:11.340Z,39.96
2022-09-07T09:36:11.250Z,40.84
2022-09-07T09:37:11.329Z,41.94
2022-09-07T09:38:11.220Z,41.23
2022-09-07T09:39:11.218Z,40.31
2022-09-07T09:40:11.216Z,40.53
2022-09-07T09:41:11.029Z,41.55
2022-09-07T09:42:11.118Z,41.96
2022-09-07T09:43:10.979Z,40.53
2022-09-07T09:44:11.199Z,39.84
2022-09-07T09:45:11.070Z,39.00
2022-09-07T09:46:12.760Z,37.79
2022-09-07T09:48:11.529Z,38.81
2022-09-07T09:49:10.959Z,38.96
2022-09-07T09:50:11.375Z,37.99
2022-09-07T09:53:11.545Z,35.33
2022-09-07T09:54:11.050Z,33.64
2022-09-07T09:55:33.269Z,34.30
2022-09-07T09:56:11.916Z,33.02
2022-09-07T09:57:11.358Z,34.80
2022-09-07T10:00:14.854Z,38.81
2022-09-07T10:01:27.996Z,41.29
2022-09-07T10:04:14.606Z,40.84
2022-09-07T10:05:10.949Z,38.71
2022-09-07T10:06:10.799Z,38.35
2022-09-07T10:07:12.199Z,36.96
2022-09-07T10:08:10.879Z,35.96
2022-09-07T10:09:10.880Z,36.49
2022-09-07T10:10:10.889Z,36.90
2022-09-07T10:11:10.989Z,37.91
2022-09-07T10:12:10.959Z,37.57
2022-09-07T10:13:10.649Z,36.96
2022-09-07T10:14:11.244Z,35.77
2022-09-07T10:15:10.680Z,35.03
2022-09-07T10:16:11.119Z,34.40
2022-09-07T10:17:10.629Z,33.53
2022-09-07T10:18:10.880Z,35.13
2022-09-07T10:19:10.729Z,34.92
2022-09-07T10:20:10.972Z,35.60
2022-09-07T10:21:11.518Z,36.14
2022-09-07T10:22:10.799Z,35.46
2022-09-07T10:23:10.859Z,36.30
2022-09-07T10:24:10.759Z,34.70
2022-09-07T10:25:10.633Z,35.89
2022-09-07T10:26:10.758Z,34.52
2022-09-07T10:27:10.659Z,34.82
2022-09-07T10:28:10.761Z,34.40
2022-09-07T10:29:11.273Z,32.82
2022-09-07T10:30:10.602Z,35.39
2022-09-07T10:31:14.825Z,34.22
2022-09-07T10:32:10.469Z,34.48
2022-09-07T10:33:10.799Z,33.86
2022-09-07T10:34:26.216Z,33.18
2022-09-07T10:35:10.768Z,32.20
2022-09-07T10:36:10.839Z,34.20
2022-09-07T10:37:11.210Z,34.77
2022-09-07T10:38:10.818Z,35.06
2022-09-07T10:39:10.689Z,36.10
2022-09-07T10:40:10.899Z,36.04
2022-09-07T10:41:11.193Z,34.24
2022-09-07T10:42:10.881Z,33.12
2022-09-07T10:43:26.029Z,33.70
2022-09-07T10:44:10.469Z,35.11
2022-09-07T10:45:11.510Z,37.83
2022-09-07T10:46:10.624Z,38.92
2022-09-07T10:47:10.422Z,40.48
2022-09-07T10:48:10.601Z,38.40
2022-09-07T10:49:10.350Z,39.36
2022-09-07T10:50:26.148Z,40.06
2022-09-07T10:51:14.234Z,41.00
2022-09-07T10:52:10.589Z,42.62
2022-09-07T10:53:39.137Z,44.57
2022-09-07T10:55:10.609Z,45.74
2022-09-07T10:56:10.568Z,46.65
2022-09-07T10:57:10.380Z,46.59
2022-09-07T10:58:11.316Z,46.08
2022-09-07T10:59:11.037Z,47.66
2022-09-07T11:00:10.798Z,47.26
2022-09-07T11:01:10.778Z,46.57
2022-09-07T11:02:10.218Z,48.02
2022-09-07T11:03:26.070Z,49.52
2022-09-07T11:04:10.259Z,51.54
2022-09-07T11:05:10.307Z,51.52
2022-09-07T11:06:10.327Z,49.57
2022-09-07T11:07:14.934Z,51.94
2022-09-07T11:08:10.217Z,52.63
2022-09-07T11:09:18.530Z,53.22
2022-09-07T11:10:10.207Z,52.34
2022-09-07T11:11:10.371Z,51.77
2022-09-07T11:12:10.307Z,51.70
2022-09-07T11:13:10.311Z,53.38
2022-09-07T11:14:13.432Z,52.51
2022-09-07T11:15:10.507Z,53.77
2022-09-07T11:16:50.405Z,52.48
2022-09-07T11:17:10.845Z,52.66
2022-09-07T11:18:10.137Z,53.22
2022-09-07T11:20:11.018Z,51.47
2022-09-07T11:21:10.327Z,51.99
2022-09-07T11:22:10.148Z,54.06
2022-09-07T11:23:11.329Z,53.57
2022-09-07T11:24:10.209Z,53.11
2022-09-07T11:26:11.209Z,52.69
2022-09-07T11:27:09.988Z,52.69
2022-09-07T11:28:10.187Z,52.39
2022-09-07T11:30:10.568Z,53.33
2022-09-07T11:31:10.233Z,53.03
2022-09-07T11:32:10.206Z,52.73
2022-09-07T11:33:10.019Z,53.35
2022-09-07T11:34:25.421Z,53.48
2022-09-07T11:35:10.518Z,55.56
2022-09-07T11:36:12.252Z,55.56
2022-09-07T11:37:09.977Z,53.85
2022-09-07T11:38:10.440Z,54.05
2022-09-07T11:39:10.088Z,53.82
2022-09-07T11:40:09.891Z,53.23
2022-09-07T11:41:10.011Z,53.23
2022-09-07T11:43:11.553Z,53.13
2022-09-07T11:44:09.848Z,53.63
2022-09-07T11:45:09.938Z,54.94
2022-09-07T11:46:09.952Z,53.75
2022-09-07T11:47:09.878Z,55.04
2022-09-07T11:48:10.859Z,54.05
2022-09-07T11:49:09.787Z,55.04
2022-09-07T11:50:09.849Z,55.24
2022-09-07T11:51:09.746Z,55.04
2022-09-07T11:52:09.907Z,53.16
2022-09-07T11:53:10.087Z,53.67
2022-09-07T11:54:10.087Z,54.07
2022-09-07T11:55:09.727Z,54.47
2022-09-07T11:56:10.008Z,54.27
2022-09-07T11:57:09.672Z,54.27
2022-09-07T11:58:09.786Z,54.67
2022-09-07T11:59:09.658Z,54.49
2022-09-07T12:00:09.847Z,54.79
2022-09-07T12:01:09.731Z,54.69
2022-09-07T12:02:09.786Z,54.69
2022-09-07T12:03:09.720Z,54.20
2022-09-07T12:04:14.590Z,54.79
2022-09-07T12:05:09.708Z,54.30
2022-09-07T12:06:09.659Z,54.89
2022-09-07T12:07:09.729Z,54.37
2022-09-07T12:08:09.517Z,54.14
2022-09-07T12:09:09.727Z,54.05
2022-09-07T12:10:09.527Z,53.45
2022-09-07T12:11:09.657Z,53.63
2022-09-07T12:12:09.913Z,53.03
2022-09-07T12:13:09.765Z,52.93
2022-09-07T12:14:09.497Z,54.32
2022-09-07T12:15:09.757Z,53.23
2022-09-07T12:16:09.549Z,53.25
2022-09-07T12:17:09.577Z,54.24
2022-09-07T12:18:09.617Z,54.64
2022-09-07T12:19:09.908Z,54.35
2022-09-07T12:20:09.564Z,53.82
2022-09-07T12:21:09.378Z,52.73
2022-09-07T12:22:09.540Z,52.61
2022-09-07T12:23:09.468Z,52.22
2022-09-07T12:24:09.657Z,52.22
2022-09-07T12:25:09.367Z,52.51
2022-09-07T12:26:09.548Z,51.82
2022-09-07T12:27:09.398Z,52.22
2022-09-07T12:28:09.558Z,53.30
2022-09-07T12:29:09.578Z,53.30
2022-09-07T12:30:09.508Z,52.91
2022-09-07T12:31:09.351Z,53.00
2022-09-07T12:33:10.170Z,52.91
2022-09-07T12:34:09.438Z,53.20
2022-09-07T12:35:09.447Z,51.92
2022-09-07T12:36:09.418Z,52.31
2022-09-07T12:37:12.459Z,51.82
2022-09-07T12:38:09.187Z,51.82
2022-09-07T12:39:09.570Z,52.61
2022-09-07T12:40:09.352Z,52.71
2022-09-07T12:41:09.328Z,52.71
2022-09-07T12:43:10.145Z,52.12
2022-09-07T12:44:09.298Z,52.34
2022-09-07T12:45:09.359Z,52.14
2022-09-07T12:46:09.263Z,52.04
2022-09-07T12:47:09.390Z,52.24
2022-09-07T12:48:09.158Z,52.93
2022-09-07T12:49:09.418Z,52.83
2022-09-07T12:50:10.083Z,53.42
2022-09-07T12:51:08.998Z,53.82
2022-09-07T12:52:15.660Z,53.03
2022-09-07T12:53:09.139Z,53.13
2022-09-07T12:54:09.228Z,53.60
2022-09-07T12:55:27.544Z,52.91
2022-09-07T12:56:17.206Z,52.71
2022-09-07T12:58:09.707Z,52.91
2022-09-07T12:59:17.477Z,52.31
2022-09-07T13:00:09.238Z,52.22
2022-09-07T13:01:09.499Z,53.03
2022-09-07T13:02:09.317Z,52.93
2022-09-07T13:03:49.528Z,53.13
2022-09-07T13:04:09.817Z,52.93
2022-09-07T13:05:08.481Z,52.83
2022-09-07T13:06:09.740Z,52.91
2022-09-07T13:07:09.028Z,52.22
2022-09-07T13:08:10.196Z,51.30
2022-09-07T13:09:09.040Z,51.30
2022-09-07T13:10:08.863Z,50.90
2022-09-07T13:11:09.139Z,51.07
2022-09-07T13:12:09.035Z,51.20
2022-09-07T13:13:09.141Z,51.00
2022-09-07T13:14:09.829Z,50.88
2022-09-07T13:15:14.592Z,50.29
2022-09-07T13:16:08.908Z,50.98
2022-09-07T13:17:16.494Z,50.36
2022-09-07T13:18:09.473Z,49.89
2022-09-07T13:19:08.948Z,50.41
2022-09-07T13:20:08.882Z,51.50
2022-09-07T13:21:08.977Z,50.78
2022-09-07T13:22:08.848Z,51.20
2022-09-07T13:23:08.778Z,52.09
2022-09-07T13:25:09.588Z,51.28
2022-09-07T13:26:08.859Z,50.88
2022-09-07T13:27:08.697Z,50.36
2022-09-07T13:28:08.886Z,50.98
2022-09-07T13:29:08.766Z,50.31
2022-09-07T13:30:09.321Z,51.18